KUCY/UCY METAR and TAF weather

Enter ICAO airport designator
Station Type Date Time Source
KUCY METAR 2022/01/19 19:15 UTC NOAA

KUCY 191915Z AUTO 01003KT 2 1/2SM BR FEW003 BKN017 BKN024 09/09 A2998 RMK A01


Station Type Date Time Source
KUCY Decoded METAR 2022/01/19 19:15 UTC NOAA

Station name not available
Jan 19, 2022 - 02:15 PM EST / 2022.01.19 1915 UTC
Wind: from the N (010 degrees) at 3 MPH (3 KT):0
Visibility: 2 1/2 mile(s):0
Sky conditions: mostly cloudy
Weather: mist
Temperature: 48 F (9 C)
Dew Point: 48 F (9 C)
Relative Humidity: 100%
Pressure (altimeter): 29.98 in. Hg (1015 hPa)
ob: KUCY 191915Z AUTO 01003KT 2 1/2SM BR FEW003 BKN017 BKN024 09/09 A2998 RMK A01
cycle: 19

Station Type Date Time Source
KUCY TAF UTC NOAA

Error!

Example: see airport list